createdAt,value
2018-08-10T00:02:20.750Z,17.66
2018-08-10T00:04:48.667Z,17.63
2018-08-10T00:07:16.166Z,17.61
2018-08-10T00:09:43.727Z,17.45
2018-08-10T00:12:11.250Z,17.44
2018-08-10T00:14:38.883Z,17.34
2018-08-10T00:17:06.434Z,17.35
2018-08-10T00:19:33.897Z,17.39
2018-08-10T00:22:01.456Z,17.39
2018-08-10T00:24:28.953Z,17.30
2018-08-10T00:26:56.442Z,17.27
2018-08-10T00:29:24.050Z,17.36
2018-08-10T00:31:51.543Z,17.49
2018-08-10T00:34:19.066Z,17.43
2018-08-10T00:36:46.578Z,17.52
2018-08-10T00:39:14.576Z,17.43
2018-08-10T00:41:42.906Z,17.44
2018-08-10T00:44:10.450Z,17.38
2018-08-10T00:46:38.067Z,17.23
2018-08-10T00:49:05.626Z,17.24
2018-08-10T00:51:33.163Z,17.16
2018-08-10T00:54:00.670Z,17.08
2018-08-10T00:56:28.420Z,17.05
2018-08-10T00:58:55.899Z,17.03
2018-08-10T01:01:23.439Z,17.01
2018-08-10T01:03:50.986Z,17.01
2018-08-10T01:06:18.469Z,16.92
2018-08-10T01:08:45.998Z,16.85
2018-08-10T01:11:13.534Z,16.97
2018-08-10T01:13:41.146Z,16.89
2018-08-10T01:16:08.623Z,16.86
2018-08-10T01:18:36.278Z,16.87
2018-08-10T01:21:03.918Z,16.82
2018-08-10T01:23:31.433Z,16.82
2018-08-10T01:25:58.958Z,16.82
2018-08-10T01:28:26.513Z,16.89
2018-08-10T01:30:54.447Z,16.85
2018-08-10T01:33:21.922Z,16.83
2018-08-10T01:35:49.510Z,16.80
2018-08-10T01:38:17.097Z,16.81
2018-08-10T01:40:45.159Z,16.86
2018-08-10T01:43:12.651Z,16.79
2018-08-10T01:45:40.131Z,16.83
2018-08-10T01:48:07.682Z,16.78
2018-08-10T01:50:35.210Z,16.75
2018-08-10T01:53:02.713Z,16.71
2018-08-10T01:55:30.255Z,16.67
2018-08-10T01:57:57.743Z,16.70
2018-08-10T02:00:25.274Z,16.74
2018-08-10T02:02:52.785Z,16.62
2018-08-10T02:05:20.267Z,16.59
2018-08-10T02:07:47.786Z,16.60
2018-08-10T02:10:16.621Z,16.60
2018-08-10T02:12:45.221Z,16.43
2018-08-10T02:15:14.398Z,16.45
2018-08-10T02:17:41.928Z,16.42
2018-08-10T02:20:11.344Z,16.51
2018-08-10T02:22:38.990Z,16.47
2018-08-10T02:25:07.701Z,16.51
2018-08-10T02:27:35.530Z,16.30
2018-08-10T02:30:03.590Z,16.22
2018-08-10T02:32:31.110Z,16.19
2018-08-10T02:34:58.580Z,16.15
2018-08-10T02:37:26.079Z,16.07
2018-08-10T02:39:53.671Z,15.99
2018-08-10T02:42:21.139Z,16.00
2018-08-10T02:44:48.618Z,15.93
2018-08-10T02:47:20.659Z,15.88
2018-08-10T02:49:48.117Z,15.98
2018-08-10T02:52:15.973Z,16.02
2018-08-10T02:54:43.498Z,15.89
2018-08-10T02:57:11.002Z,15.88
2018-08-10T02:59:38.493Z,15.96
2018-08-10T03:02:05.958Z,15.88
2018-08-10T03:04:33.486Z,15.79
2018-08-10T03:07:01.121Z,15.73
2018-08-10T03:09:28.602Z,15.72
2018-08-10T03:11:56.092Z,15.61
2018-08-10T03:14:23.673Z,15.64
2018-08-10T03:16:51.742Z,15.65
2018-08-10T03:19:19.264Z,15.77
2018-08-10T03:21:46.750Z,15.76
2018-08-10T03:24:14.265Z,15.80
2018-08-10T03:26:41.743Z,15.83
2018-08-10T03:29:09.334Z,15.81
2018-08-10T03:31:36.997Z,15.93
2018-08-10T03:34:04.741Z,15.89
2018-08-10T03:36:32.346Z,15.89
2018-08-10T03:38:59.817Z,15.90
2018-08-10T03:41:27.322Z,16.00
2018-08-10T03:43:54.808Z,15.86
2018-08-10T03:46:22.328Z,15.79
2018-08-10T03:48:49.906Z,15.84
2018-08-10T03:51:17.452Z,15.79
2018-08-10T03:53:45.102Z,15.87
2018-08-10T03:56:12.624Z,15.97
2018-08-10T03:58:40.099Z,16.02
2018-08-10T04:01:07.606Z,15.96
2018-08-10T04:03:35.110Z,15.93
2018-08-10T04:06:02.762Z,15.91
2018-08-10T04:08:30.298Z,15.87
2018-08-10T04:10:57.971Z,15.86
2018-08-10T04:13:25.443Z,15.85
2018-08-10T04:15:53.033Z,15.88
2018-08-10T04:18:20.529Z,15.95
2018-08-10T04:20:48.142Z,15.94
2018-08-10T04:23:15.702Z,15.83
2018-08-10T04:25:43.217Z,15.83
2018-08-10T04:28:10.979Z,15.84
2018-08-10T04:30:38.455Z,15.87
2018-08-10T04:33:06.490Z,15.78
2018-08-10T04:35:34.073Z,15.82
2018-08-10T04:38:01.670Z,15.82
2018-08-10T04:40:29.691Z,15.75
2018-08-10T04:42:57.171Z,15.75
2018-08-10T04:45:24.766Z,15.83
2018-08-10T04:47:56.846Z,15.79
2018-08-10T04:50:24.646Z,15.88
2018-08-10T04:52:52.224Z,15.96
2018-08-10T04:55:19.834Z,15.98
2018-08-10T04:57:47.308Z,15.94
2018-08-10T05:00:14.793Z,15.91
2018-08-10T05:02:42.458Z,15.93
2018-08-10T05:05:10.532Z,15.90
2018-08-10T05:07:38.653Z,16.04
2018-08-10T05:10:06.451Z,16.04
2018-08-10T05:12:33.932Z,16.03
2018-08-10T05:15:01.406Z,16.01
2018-08-10T05:17:29.122Z,16.14
2018-08-10T05:19:56.605Z,16.18
2018-08-10T05:22:24.090Z,16.11
2018-08-10T05:24:51.843Z,16.05
2018-08-10T05:27:19.334Z,15.99
2018-08-10T05:29:46.842Z,16.02
2018-08-10T05:32:14.690Z,15.95
2018-08-10T05:34:42.172Z,15.90
2018-08-10T05:37:09.788Z,15.95
2018-08-10T05:39:40.537Z,15.98
2018-08-10T05:42:09.679Z,15.92
2018-08-10T05:44:37.222Z,16.07
2018-08-10T05:47:04.724Z,16.08
2018-08-10T05:49:32.269Z,16.17
2018-08-10T05:51:59.901Z,16.28
2018-08-10T05:54:27.405Z,16.42
2018-08-10T05:56:54.873Z,16.93
2018-08-10T05:59:22.419Z,17.22
2018-08-10T06:01:50.035Z,17.65
2018-08-10T06:04:17.514Z,18.09
2018-08-10T06:06:45.045Z,18.35
2018-08-10T06:09:13.871Z,18.70
2018-08-10T06:11:42.115Z,18.61
2018-08-10T06:14:09.583Z,18.66
2018-08-10T06:16:37.134Z,19.01
2018-08-10T06:19:04.706Z,19.25
2018-08-10T06:21:32.246Z,19.30
2018-08-10T06:23:59.762Z,19.60
2018-08-10T06:26:27.238Z,19.99
2018-08-10T06:28:54.827Z,19.97
2018-08-10T06:31:22.334Z,20.34
2018-08-10T06:33:49.864Z,19.96
2018-08-10T06:36:17.316Z,20.58
2018-08-10T06:38:44.787Z,20.74
2018-08-10T06:41:12.339Z,20.60
2018-08-10T06:43:39.842Z,20.56
2018-08-10T06:46:07.590Z,20.62
2018-08-10T06:48:35.050Z,20.29
2018-08-10T06:51:02.571Z,19.49
2018-08-10T06:53:30.247Z,20.04
2018-08-10T06:55:57.971Z,20.54
2018-08-10T06:58:25.600Z,21.40
2018-08-10T07:00:53.200Z,21.72
2018-08-10T07:03:20.697Z,21.54
2018-08-10T07:05:48.271Z,21.26
2018-08-10T07:08:15.778Z,21.07
2018-08-10T07:10:43.289Z,20.71
2018-08-10T07:13:10.867Z,20.66
2018-08-10T07:15:38.298Z,21.73
2018-08-10T07:18:05.853Z,22.02
2018-08-10T07:20:33.330Z,23.09
2018-08-10T07:23:00.803Z,23.83
2018-08-10T07:25:28.347Z,24.21
2018-08-10T07:27:55.933Z,23.93
2018-08-10T07:30:23.458Z,23.78
2018-08-10T07:32:50.940Z,23.47
2018-08-10T07:35:18.435Z,24.05
2018-08-10T07:37:45.945Z,24.20
2018-08-10T07:40:13.429Z,24.21
2018-08-10T07:42:41.250Z,24.90
2018-08-10T07:45:08.832Z,25.54
2018-08-10T07:47:36.303Z,26.41
2018-08-10T07:50:04.340Z,26.34
2018-08-10T07:52:31.858Z,26.95
2018-08-10T07:54:59.383Z,26.23
2018-08-10T07:57:26.965Z,25.70
2018-08-10T07:59:54.491Z,26.73
2018-08-10T08:02:21.970Z,27.83
2018-08-10T08:04:49.462Z,28.64
2018-08-10T08:07:16.998Z,28.30
2018-08-10T08:09:44.503Z,27.88
2018-08-10T08:12:12.050Z,28.55
2018-08-10T08:14:39.530Z,28.97
2018-08-10T08:17:07.482Z,29.92
2018-08-10T08:19:35.198Z,29.38
2018-08-10T08:22:03.470Z,27.57
2018-08-10T08:24:30.965Z,28.74
2018-08-10T08:26:58.527Z,28.60
2018-08-10T08:29:26.079Z,29.59
2018-08-10T08:31:53.965Z,29.26
2018-08-10T08:34:21.774Z,29.15
2018-08-10T08:36:49.290Z,29.69
2018-08-10T08:39:28.280Z,30.03
2018-08-10T08:41:55.804Z,30.20
2018-08-10T08:44:30.689Z,31.10
2018-08-10T08:46:58.228Z,31.35
2018-08-10T08:49:25.726Z,31.63
2018-08-10T08:51:53.294Z,31.73
2018-08-10T08:56:28.876Z,32.51
2018-08-10T08:58:56.451Z,33.09
2018-08-10T09:01:23.947Z,32.04
2018-08-10T09:05:08.747Z,32.96
2018-08-10T09:07:36.729Z,32.29
2018-08-10T09:10:48.306Z,32.38
2018-08-10T09:13:15.881Z,33.69
2018-08-10T09:15:43.443Z,32.71
2018-08-10T09:18:10.978Z,32.51
2018-08-10T09:20:38.814Z,33.26
2018-08-10T09:23:06.822Z,32.97
2018-08-10T09:25:34.380Z,32.40
2018-08-10T09:28:01.922Z,31.53
2018-08-10T09:30:29.526Z,31.18
2018-08-10T09:32:57.087Z,30.24
2018-08-10T09:35:24.586Z,30.57
2018-08-10T09:37:52.124Z,31.06
2018-08-10T09:40:20.415Z,29.69
2018-08-10T09:42:48.004Z,29.14
2018-08-10T09:45:16.034Z,29.60
2018-08-10T09:47:44.618Z,29.82
2018-08-10T09:50:12.694Z,30.49
2018-08-10T09:52:40.594Z,31.36
2018-08-10T09:55:17.354Z,32.07
2018-08-10T09:57:44.871Z,32.93
2018-08-10T10:00:18.190Z,32.61
2018-08-10T10:02:50.214Z,31.75
2018-08-10T10:05:17.778Z,31.08
2018-08-10T10:07:45.730Z,32.15
2018-08-10T10:10:13.274Z,32.00
2018-08-10T10:12:40.796Z,31.34
2018-08-10T10:15:08.411Z,29.84
2018-08-10T10:17:36.236Z,28.22
2018-08-10T10:20:04.527Z,27.96
2018-08-10T10:22:32.082Z,28.06
2018-08-10T10:24:59.622Z,28.55
2018-08-10T10:27:27.550Z,27.52
2018-08-10T10:29:55.380Z,27.41
2018-08-10T10:32:23.027Z,26.73
2018-08-10T10:34:50.522Z,27.05
2018-08-10T10:37:18.091Z,27.39
2018-08-10T10:39:45.579Z,27.47
2018-08-10T10:42:13.204Z,27.71
2018-08-10T10:44:40.766Z,27.94
2018-08-10T10:47:08.605Z,28.28
2018-08-10T10:49:36.112Z,28.81
2018-08-10T10:52:03.634Z,29.63
2018-08-10T10:54:31.558Z,30.44
2018-08-10T10:56:59.124Z,30.09
2018-08-10T10:59:26.614Z,30.34
2018-08-10T11:01:54.454Z,30.37
2018-08-10T11:04:21.949Z,29.53
2018-08-10T11:06:49.478Z,29.97
2018-08-10T11:09:16.995Z,30.34
2018-08-10T11:11:44.552Z,30.36
2018-08-10T11:14:12.064Z,30.41
2018-08-10T11:16:39.562Z,30.40
2018-08-10T11:19:07.098Z,30.22
2018-08-10T11:21:34.606Z,29.25
2018-08-10T11:24:02.162Z,29.65
2018-08-10T11:26:29.737Z,29.12
2018-08-10T11:28:57.383Z,28.60
2018-08-10T11:31:24.895Z,28.77
2018-08-10T11:33:52.383Z,28.76
2018-08-10T11:36:19.917Z,28.46
2018-08-10T11:38:47.398Z,28.14
2018-08-10T11:41:15.445Z,28.35
2018-08-10T11:43:42.960Z,27.87
2018-08-10T11:46:10.464Z,27.25
2018-08-10T11:48:38.066Z,27.33
2018-08-10T11:51:05.605Z,27.26
2018-08-10T11:53:33.111Z,27.34
2018-08-10T11:56:00.646Z,27.27
2018-08-10T11:58:28.214Z,27.04
2018-08-10T12:00:55.806Z,26.96
2018-08-10T12:03:23.388Z,27.09
2018-08-10T12:05:50.967Z,27.18
2018-08-10T12:08:18.499Z,27.51
2018-08-10T12:10:46.042Z,27.87
2018-08-10T12:13:13.562Z,27.77
2018-08-10T12:15:41.094Z,27.82
2018-08-10T12:18:08.669Z,27.71
2018-08-10T12:20:36.260Z,27.80
2018-08-10T12:23:03.735Z,27.62
2018-08-10T12:25:31.329Z,27.43
2018-08-10T12:27:58.807Z,27.28
2018-08-10T12:30:26.431Z,26.61
2018-08-10T12:32:53.922Z,26.32
2018-08-10T12:35:21.482Z,25.94
2018-08-10T12:37:49.026Z,26.03
2018-08-10T12:40:16.519Z,25.83
2018-08-10T12:42:44.102Z,25.55
2018-08-10T12:45:11.598Z,25.69
2018-08-10T12:47:39.233Z,25.89
2018-08-10T12:50:07.020Z,25.69
2018-08-10T12:52:34.653Z,25.67
2018-08-10T12:55:02.204Z,25.44
2018-08-10T12:57:29.788Z,25.44
2018-08-10T12:59:57.362Z,25.52
2018-08-10T13:02:25.006Z,25.68
2018-08-10T13:04:52.557Z,25.76
2018-08-10T13:07:20.034Z,25.80
2018-08-10T13:09:47.547Z,25.75
2018-08-10T13:12:15.556Z,25.88
2018-08-10T13:14:43.085Z,25.82
2018-08-10T13:17:10.634Z,25.78
2018-08-10T13:19:38.231Z,25.82
2018-08-10T13:22:05.750Z,25.70
2018-08-10T13:24:33.263Z,25.88
2018-08-10T13:27:00.770Z,25.52
2018-08-10T13:29:28.270Z,25.45
2018-08-10T13:31:56.801Z,25.69
2018-08-10T13:34:24.298Z,25.38
2018-08-10T13:36:51.834Z,25.26
2018-08-10T13:39:19.370Z,25.44
2018-08-10T13:41:47.693Z,25.19
2018-08-10T13:44:15.306Z,25.03
2018-08-10T13:46:42.810Z,25.29
2018-08-10T13:49:10.316Z,25.26
2018-08-10T13:51:37.863Z,25.05
2018-08-10T13:54:05.369Z,25.04
2018-08-10T13:56:33.226Z,25.38
2018-08-10T13:59:00.765Z,25.44
2018-08-10T14:01:28.269Z,25.43
2018-08-10T14:03:55.825Z,25.40
2018-08-10T14:06:23.397Z,25.09
2018-08-10T14:08:50.963Z,24.92
2018-08-10T14:11:18.539Z,24.95
2018-08-10T14:13:46.374Z,24.92
2018-08-10T14:16:13.885Z,24.86
2018-08-10T14:18:41.362Z,25.07
2018-08-10T14:21:09.274Z,25.28
2018-08-10T14:23:36.833Z,25.44
2018-08-10T14:26:04.650Z,25.49
2018-08-10T14:28:32.214Z,25.40
2018-08-10T14:30:59.731Z,25.46
2018-08-10T14:33:27.322Z,25.12
2018-08-10T14:35:54.886Z,25.08
2018-08-10T14:38:22.455Z,24.91
2018-08-10T14:40:49.947Z,25.08
2018-08-10T14:43:17.471Z,25.08
2018-08-10T14:45:45.022Z,25.03
2018-08-10T14:48:12.528Z,25.10
2018-08-10T14:50:40.071Z,25.15
2018-08-10T14:53:07.626Z,25.36
2018-08-10T14:55:35.166Z,25.65
2018-08-10T14:58:03.070Z,25.43
2018-08-10T15:00:30.580Z,25.34
2018-08-10T15:02:58.107Z,25.44
2018-08-10T15:05:25.621Z,25.36
2018-08-10T15:07:53.135Z,25.44
2018-08-10T15:10:20.630Z,25.02
2018-08-10T15:12:48.551Z,24.89
2018-08-10T15:15:16.846Z,24.91
2018-08-10T15:17:44.819Z,24.76
2018-08-10T15:20:14.622Z,24.91
2018-08-10T15:22:42.421Z,25.11
2018-08-10T15:25:10.381Z,24.93
2018-08-10T15:27:38.249Z,24.88
2018-08-10T15:30:06.925Z,24.94
2018-08-10T15:32:34.418Z,24.86
2018-08-10T15:35:01.953Z,24.74
2018-08-10T15:37:29.520Z,24.68
2018-08-10T15:39:57.017Z,24.80
2018-08-10T15:42:24.955Z,24.92
2018-08-10T15:44:52.421Z,24.73
2018-08-10T15:47:19.965Z,24.69
2018-08-10T15:49:47.541Z,24.83
2018-08-10T15:52:14.989Z,24.85
2018-08-10T15:54:42.486Z,24.35
2018-08-10T15:57:09.998Z,24.26
2018-08-10T15:59:37.607Z,24.06
2018-08-10T16:02:05.307Z,23.99
2018-08-10T16:04:34.722Z,24.08
2018-08-10T16:07:02.281Z,24.20
2018-08-10T16:09:29.828Z,24.38
2018-08-10T16:11:57.613Z,24.30
2018-08-10T16:14:25.178Z,24.28
2018-08-10T16:16:52.685Z,24.17
2018-08-10T16:19:20.586Z,24.34
2018-08-10T16:21:48.089Z,24.24
2018-08-10T16:24:15.623Z,24.21
2018-08-10T16:26:43.457Z,24.33
2018-08-10T16:29:11.025Z,24.21
2018-08-10T16:31:38.531Z,24.17
2018-08-10T16:34:06.602Z,24.07
2018-08-10T16:36:34.139Z,24.00
2018-08-10T16:39:01.683Z,24.00
2018-08-10T16:41:29.349Z,23.86
2018-08-10T16:43:57.143Z,23.90
2018-08-10T16:46:24.638Z,23.95
2018-08-10T16:48:52.205Z,23.89
2018-08-10T16:51:19.739Z,23.85
2018-08-10T16:53:47.277Z,23.84
2018-08-10T16:56:14.818Z,23.77
2018-08-10T16:58:42.346Z,23.67
2018-08-10T17:01:09.931Z,23.67
2018-08-10T17:03:37.426Z,23.70
2018-08-10T17:06:04.973Z,23.59
2018-08-10T17:08:32.523Z,23.56
2018-08-10T17:11:00.060Z,23.62
2018-08-10T17:13:27.566Z,23.55
2018-08-10T17:15:55.148Z,23.54
2018-08-10T17:18:22.843Z,23.45
2018-08-10T17:20:50.355Z,23.46
2018-08-10T17:23:18.427Z,23.49
2018-08-10T17:25:46.008Z,23.43
2018-08-10T17:28:13.554Z,23.38
2018-08-10T17:30:41.154Z,23.43
2018-08-10T17:33:08.734Z,23.40
2018-08-10T17:35:36.269Z,23.26
2018-08-10T17:38:03.997Z,23.32
2018-08-10T17:40:31.502Z,23.27
2018-08-10T17:42:59.046Z,23.25
2018-08-10T17:45:26.529Z,23.15
2018-08-10T17:47:54.062Z,23.14
2018-08-10T17:50:21.748Z,23.01
2018-08-10T17:52:50.566Z,23.07
2018-08-10T17:55:18.703Z,23.03
2018-08-10T17:57:46.419Z,23.11
2018-08-10T18:00:15.708Z,22.96
2018-08-10T18:02:43.469Z,22.89
2018-08-10T18:05:12.634Z,22.70
2018-08-10T18:07:40.423Z,22.69
2018-08-10T18:10:08.243Z,22.69
2018-08-10T18:12:36.338Z,22.46
2018-08-10T18:15:04.510Z,22.43
2018-08-10T18:17:31.999Z,22.24
2018-08-10T18:19:59.522Z,22.12
2018-08-10T18:22:27.323Z,22.16
2018-08-10T18:24:54.862Z,21.88
2018-08-10T18:27:22.533Z,21.79
2018-08-10T18:29:50.317Z,21.66
2018-08-10T18:32:17.954Z,21.66
2018-08-10T18:34:45.430Z,21.59
2018-08-10T18:37:12.972Z,21.62
2018-08-10T18:39:41.634Z,21.70
2018-08-10T18:42:09.172Z,21.60
2018-08-10T18:44:36.672Z,21.66
2018-08-10T18:47:04.219Z,21.46
2018-08-10T18:49:31.719Z,21.48
2018-08-10T18:51:59.387Z,21.44
2018-08-10T18:54:26.915Z,21.34
2018-08-10T18:56:54.436Z,21.20
2018-08-10T18:59:21.950Z,21.11
2018-08-10T19:01:49.541Z,21.11
2018-08-10T19:04:17.110Z,21.06
2018-08-10T19:06:45.776Z,21.05
2018-08-10T19:09:13.288Z,20.95
2018-08-10T19:11:40.926Z,20.95
2018-08-10T19:14:08.543Z,20.91
2018-08-10T19:16:36.113Z,20.90
2018-08-10T19:19:03.671Z,21.00
2018-08-10T19:21:31.318Z,20.59
2018-08-10T19:23:58.843Z,20.68
2018-08-10T19:26:26.412Z,20.64
2018-08-10T19:28:53.898Z,20.52
2018-08-10T19:31:21.431Z,20.20
2018-08-10T19:33:48.943Z,20.30
2018-08-10T19:36:16.495Z,20.25
2018-08-10T19:38:44.097Z,20.10
2018-08-10T19:41:11.702Z,19.97
2018-08-10T19:43:39.243Z,19.83
2018-08-10T19:46:07.109Z,19.92
2018-08-10T19:48:34.737Z,19.98
2018-08-10T19:51:02.207Z,20.07
2018-08-10T19:53:30.072Z,19.88
2018-08-10T19:55:57.604Z,19.71
2018-08-10T19:58:25.116Z,19.44
2018-08-10T20:00:52.654Z,19.46
2018-08-10T20:03:20.147Z,19.27
2018-08-10T20:05:47.705Z,19.10
2018-08-10T20:08:15.272Z,19.10
2018-08-10T20:10:42.833Z,19.15
2018-08-10T20:13:10.394Z,19.15
2018-08-10T20:15:38.027Z,19.11
2018-08-10T20:18:05.494Z,18.97
2018-08-10T20:20:33.063Z,18.74
2018-08-10T20:23:00.675Z,18.67
2018-08-10T20:25:28.262Z,18.67
2018-08-10T20:27:56.770Z,18.63
2018-08-10T20:30:24.306Z,18.63
2018-08-10T20:32:51.794Z,18.63
2018-08-10T20:35:19.668Z,18.57
2018-08-10T20:37:47.388Z,18.46
2018-08-10T20:40:15.818Z,18.35
2018-08-10T20:42:43.520Z,18.28
2018-08-10T20:45:11.102Z,18.26
2018-08-10T20:47:38.637Z,18.25
2018-08-10T20:50:07.590Z,18.35
2018-08-10T20:52:35.068Z,18.32
2018-08-10T20:55:03.056Z,18.20
2018-08-10T20:57:30.711Z,18.20
2018-08-10T20:59:58.220Z,18.15
2018-08-10T21:02:25.786Z,18.00
2018-08-10T21:04:53.287Z,18.08
2018-08-10T21:07:20.786Z,18.03
2018-08-10T21:09:48.298Z,17.98
2018-08-10T21:12:15.819Z,17.97
2018-08-10T21:14:43.392Z,18.00
2018-08-10T21:17:10.890Z,17.84
2018-08-10T21:19:38.444Z,17.77
2018-08-10T21:22:06.053Z,17.91
2018-08-10T21:24:33.558Z,17.77
2018-08-10T21:27:01.171Z,17.74
2018-08-10T21:29:28.719Z,17.94
2018-08-10T21:31:56.236Z,17.88
2018-08-10T21:34:23.803Z,17.73
2018-08-10T21:36:51.362Z,17.61
2018-08-10T21:39:18.913Z,17.62
2018-08-10T21:41:46.761Z,17.39
2018-08-10T21:44:14.350Z,17.25
2018-08-10T21:46:41.906Z,17.23
2018-08-10T21:49:09.507Z,17.25
2018-08-10T21:51:37.101Z,17.20
2018-08-10T21:54:04.625Z,17.30
2018-08-10T21:56:32.204Z,17.34
2018-08-10T21:59:00.971Z,17.22
2018-08-10T22:01:28.510Z,17.16
2018-08-10T22:03:56.098Z,17.24
2018-08-10T22:06:24.921Z,17.26
2018-08-10T22:08:52.516Z,17.17
2018-08-10T22:11:20.061Z,17.02
2018-08-10T22:13:53.304Z,17.03
2018-08-10T22:16:26.576Z,16.99
2018-08-10T22:19:26.729Z,16.83
2018-08-10T22:21:54.250Z,16.68
2018-08-10T22:24:21.781Z,16.65
2018-08-10T22:26:49.362Z,16.61
2018-08-10T22:29:16.915Z,16.61
2018-08-10T22:31:44.738Z,16.65
2018-08-10T22:34:12.314Z,16.61
2018-08-10T22:36:39.866Z,16.64
2018-08-10T22:39:08.237Z,16.63
2018-08-10T22:41:36.246Z,16.60
2018-08-10T22:44:03.868Z,16.63
2018-08-10T22:46:31.452Z,16.63
2018-08-10T22:48:58.997Z,16.62
2018-08-10T22:51:26.846Z,16.65
2018-08-10T22:53:54.407Z,16.67
2018-08-10T22:56:21.973Z,16.61
2018-08-10T22:58:50.543Z,16.56
2018-08-10T23:01:18.265Z,16.54
2018-08-10T23:03:45.838Z,16.53
2018-08-10T23:06:13.537Z,16.55
2018-08-10T23:08:41.104Z,16.54
2018-08-10T23:11:08.630Z,16.54
2018-08-10T23:13:36.189Z,16.56
2018-08-10T23:16:03.790Z,16.48
2018-08-10T23:18:31.343Z,16.43
2018-08-10T23:20:58.883Z,16.47
2018-08-10T23:23:26.493Z,16.47
2018-08-10T23:25:54.079Z,16.60
2018-08-10T23:28:21.963Z,16.42
2018-08-10T23:30:49.482Z,16.26
2018-08-10T23:33:17.013Z,16.22
2018-08-10T23:35:44.554Z,16.06
2018-08-10T23:38:12.110Z,15.99
2018-08-10T23:40:39.662Z,16.04
2018-08-10T23:43:07.244Z,16.01
2018-08-10T23:45:34.864Z,15.96
2018-08-10T23:48:02.441Z,15.81
2018-08-10T23:50:30.011Z,15.78
2018-08-10T23:52:57.844Z,15.59
2018-08-10T23:55:25.393Z,15.41
2018-08-10T23:57:52.930Z,15.57
